Time;durP1;ratioP1;P1;durP2;ratioP2;P2;SDS_P1;SDS_P2;PMS_P1;PMS_P2;Temp;Humidity;BMP_temperature;BMP_pressure;BME280_temperature;BME280_humidity;BME280_pressure;Samples;Min_cycle;Max_cycle;Signal;HPM_P1;HPM_P2
2022/03/11 00:00:52;;;;;;;;;;;;;;;5.92;67.01;67432.91;5029554;28;19917;-83
2022/03/11 00:03:22;;;;;;;;;;;;;;;5.86;68.31;67426.72;5035647;28;19917;-86
2022/03/11 00:05:52;;;;;;;;;;;;;;;5.85;68.23;67430.31;5000024;28;20344;-84
2022/03/11 00:08:19;;;;;;;;;;;;;;;5.76;67.34;67414.84;4996565;28;20280;-86
2022/03/11 00:10:51;;;;;;;;;;;;;;;5.70;67.61;67411.28;4995353;28;19913;-85
2022/03/11 00:13:17;;;;;;;;;;;;;;;5.66;66.79;67409.94;4997959;28;19913;-86
2022/03/11 00:15:42;;;;;;;;;;;;;;;5.61;67.66;67399.03;5033109;28;19925;-84
2022/03/11 00:18:08;;;;;;;;;;;;;;;5.55;67.97;67397.53;4994526;28;19913;-84
2022/03/11 00:20:33;;;;;;;;;;;;;;;5.65;68.37;67408.81;4998461;28;19921;-84
2022/03/11 00:23:07;;;;;;;;;;;;;;;5.55;68.39;67391.66;5014964;28;19983;-83
2022/03/11 00:25:32;;;;;;;;;;;;;;;5.52;69.72;67388.84;4999317;28;19921;-85
2022/03/11 00:28:01;;;;;;;;;;;;;;;5.50;67.21;67388.69;4996896;28;19914;-87
2022/03/11 00:30:29;;;;;;;;;;;;;;;5.49;67.81;67388.09;5028410;28;19928;-83
2022/03/11 00:32:56;;;;;;;;;;;;;;;5.49;68.02;67385.47;4997632;28;20389;-84
2022/03/11 00:35:23;;;;;;;;;;;;;;;5.40;67.53;67381.13;5017201;28;19917;-84
2022/03/11 00:37:49;;;;;;;;;;;;;;;5.41;68.25;67379.06;5012172;28;19965;-83
2022/03/11 00:40:14;;;;;;;;;;;;;;;5.39;69.50;67374.72;4997750;28;20536;-85
2022/03/11 00:42:39;;;;;;;;;;;;;;;;;;5002790;28;20371;-84
2022/03/11 00:45:05;;;;;;;;;;;;;;;5.25;68.82;67361.00;4998811;28;19917;-85
2022/03/11 00:47:31;;;;;;;;;;;;;;;5.24;68.90;67357.22;5001407;28;19928;-84
2022/03/11 00:49:57;;;;;;;;;;;;;;;5.24;70.59;67357.22;4998645;28;20314;-84
2022/03/11 00:52:22;;;;;;;;;;;;;;;5.17;69.75;67350.44;4999923;28;19925;-84
2022/03/11 00:54:48;;;;;;;;;;;;;;;5.12;67.88;67347.44;5029504;28;19975;-84
2022/03/11 00:57:13;;;;;;;;;;;;;;;5.16;70.40;67354.03;5003327;28;19928;-85
2022/03/11 00:59:38;;;;;;;;;;;;;;;5.03;70.11;67339.91;5032558;28;20389;-84
2022/03/11 01:02:03;;;;;;;;;;;;;;;;;;4998604;28;19922;-84
2022/03/11 01:04:29;;;;;;;;;;;;;;;5.03;70.02;67339.34;5000198;28;20060;-84
2022/03/11 01:06:55;;;;;;;;;;;;;;;5.00;70.19;67331.22;5001446;28;20331;-84
2022/03/11 01:09:21;;;;;;;;;;;;;;;4.97;70.47;67330.47;5002855;28;19914;-85
2022/03/11 01:11:46;;;;;;;;;;;;;;;4.97;70.39;67331.03;5001400;28;19967;-84
2022/03/11 01:14:12;;;;;;;;;;;;;;;4.95;70.59;67326.16;5033160;28;19921;-84
2022/03/11 01:16:37;;;;;;;;;;;;;;;4.89;71.30;67319.38;5034488;28;19920;-84
2022/03/11 01:19:02;;;;;;;;;;;;;;;4.85;71.31;67317.50;4996105;28;19913;-84
2022/03/11 01:21:28;;;;;;;;;;;;;;;4.91;69.31;67326.34;5032354;28;19913;-84
2022/03/11 01:23:54;;;;;;;;;;;;;;;4.97;72.43;67333.13;5002325;28;20186;-85
2022/03/11 01:26:20;;;;;;;;;;;;;;;4.92;69.76;67325.41;5002783;28;19925;-85
2022/03/11 01:28:45;;;;;;;;;;;;;;;4.85;71.32;67316.94;4993307;28;19920;-83
2022/03/11 01:31:12;;;;;;;;;;;;;;;4.80;71.83;67314.47;5010583;28;20293;-85
2022/03/11 01:33:42;;;;;;;;;;;;;;;4.73;71.77;67306.59;5001655;28;19917;-85
2022/03/11 01:36:08;;;;;;;;;;;;;;;4.67;71.03;67297.75;5003696;28;19921;-84
2022/03/11 01:38:33;;;;;;;;;;;;;;;4.62;73.26;67294.72;5003705;28;19921;-85
2022/03/11 01:40:59;;;;;;;;;;;;;;;4.60;72.31;67292.47;4999978;28;19968;-85
2022/03/11 01:43:25;;;;;;;;;;;;;;;4.56;71.10;67285.31;5001628;28;20068;-84
2022/03/11 01:45:52;;;;;;;;;;;;;;;4.52;72.74;67283.44;5004265;28;20360;-85
2022/03/11 01:48:18;;;;;;;;;;;;;;;4.57;72.43;67285.88;5032551;28;19918;-86
2022/03/11 01:50:43;;;;;;;;;;;;;;;4.51;73.05;67282.31;4991457;28;19917;-85
2022/03/11 01:53:08;;;;;;;;;;;;;;;;;;5038013;28;20128;-84
2022/03/11 01:55:35;;;;;;;;;;;;;;;4.49;72.64;67274.78;5006244;28;20263;-85
2022/03/11 01:58:02;;;;;;;;;;;;;;;4.42;72.14;67270.06;5036403;28;20753;-85
2022/03/11 02:00:29;;;;;;;;;;;;;;;4.38;73.41;67262.38;5003664;28;19917;-85
2022/03/11 02:02:55;;;;;;;;;;;;;;;4.36;71.91;67262.75;5005803;28;19921;-83
2022/03/11 02:05:21;;;;;;;;;;;;;;;4.37;73.86;67261.78;5020022;28;19953;-85
2022/03/11 02:07:47;;;;;;;;;;;;;;;4.39;75.12;67268.75;5008471;28;19953;-86
2022/03/11 02:10:12;;;;;;;;;;;;;;;4.34;74.17;67260.47;5003242;28;20026;-84
2022/03/11 02:12:38;;;;;;;;;;;;;;;4.41;74.50;67271.03;5006143;28;20265;-84
2022/03/11 02:15:04;;;;;;;;;;;;;;;4.37;73.45;67261.22;5037466;28;19917;-84
2022/03/11 02:17:29;;;;;;;;;;;;;;;4.37;74.91;67266.50;5006091;28;19913;-85
2022/03/11 02:19:54;;;;;;;;;;;;;;;4.27;75.13;67258.97;4997468;28;19941;-85
2022/03/11 02:22:21;;;;;;;;;;;;;;;4.31;74.75;67260.28;5033138;28;20026;-86
2022/03/11 02:24:47;;;;;;;;;;;;;;;4.30;73.58;67259.16;5004512;28;19918;-85
2022/03/11 02:27:12;;;;;;;;;;;;;;;4.34;75.10;67268.38;5003584;28;19921;-83
2022/03/11 02:29:38;;;;;;;;;;;;;;;4.30;72.97;67259.16;5002360;28;19944;-85
2022/03/11 02:32:03;;;;;;;;;;;;;;;4.25;75.00;67251.44;5002667;28;19917;-86
2022/03/11 02:34:28;;;;;;;;;;;;;;;4.22;73.45;67248.06;5003937;28;19924;-83
2022/03/11 02:36:54;;;;;;;;;;;;;;;4.23;71.95;67249.19;5037076;28;19944;-86
2022/03/11 02:39:19;;;;;;;;;;;;;;;4.24;75.37;67247.69;5035667;28;19921;-86
2022/03/11 02:41:47;;;;;;;;;;;;;;;4.20;75.12;67245.81;5004597;28;19921;-84
2022/03/11 02:44:13;;;;;;;;;;;;;;;4.26;73.82;67255.22;5033466;28;19967;-85
2022/03/11 02:46:38;;;;;;;;;;;;;;;;;;5004744;28;19922;-86
2022/03/11 02:49:03;;;;;;;;;;;;;;;4.20;75.41;67248.44;5033481;28;19924;-84
2022/03/11 02:51:28;;;;;;;;;;;;;;;4.20;73.54;67243.19;5005500;28;20004;-85
2022/03/11 02:53:53;;;;;;;;;;;;;;;4.16;72.81;67238.66;5001819;28;20187;-84
2022/03/11 02:56:21;;;;;;;;;;;;;;;4.18;75.10;67246.19;5001455;28;19941;-86
2022/03/11 02:58:46;;;;;;;;;;;;;;;4.19;75.13;67244.13;4999307;28;19920;-85
2022/03/11 03:01:11;;;;;;;;;;;;;;;4.13;75.96;67237.91;5019561;28;20008;-83
2022/03/11 03:03:37;;;;;;;;;;;;;;;4.01;74.68;67224.94;5001145;28;19923;-84
2022/03/11 03:06:03;;;;;;;;;;;;;;;4.00;74.18;67220.59;5002730;28;20008;-87
2022/03/11 03:08:28;;;;;;;;;;;;;;;3.97;75.99;67217.78;4998447;28;19922;-84
2022/03/11 03:10:53;;;;;;;;;;;;;;;3.93;76.18;67215.34;5029821;28;19923;-85
2022/03/11 03:13:19;;;;;;;;;;;;;;;3.87;74.18;67211.19;5034830;28;19920;-85
2022/03/11 03:15:44;;;;;;;;;;;;;;;;;;5001743;28;19922;-83
2022/03/11 03:18:09;;;;;;;;;;;;;;;3.93;75.54;67212.72;5030978;28;20394;-84
2022/03/11 03:20:35;;;;;;;;;;;;;;;4.01;74.86;67221.72;5001859;28;19977;-85
2022/03/11 03:23:00;;;;;;;;;;;;;;;4.01;73.49;67229.63;5034214;28;20254;-85
2022/03/11 03:25:28;;;;;;;;;;;;;;;4.07;74.95;67231.13;5004127;28;19928;-85
2022/03/11 03:27:53;;;;;;;;;;;;;;;4.10;75.53;67234.53;5033866;28;20011;-84
2022/03/11 03:30:19;;;;;;;;;;;;;;;4.09;74.87;67235.47;5017732;28;20349;-84
2022/03/11 03:32:45;;;;;;;;;;;;;;;4.09;74.25;67230.78;5003270;28;19917;-84
2022/03/11 03:35:12;;;;;;;;;;;;;;;4.05;75.20;67231.50;5002969;28;20405;-84
2022/03/11 03:37:37;;;;;;;;;;;;;;;4.06;75.25;67227.38;5030685;28;20344;-86
2022/03/11 03:40:04;;;;;;;;;;;;;;;4.05;75.13;67229.44;5001910;28;20026;-85
2022/03/11 03:42:29;;;;;;;;;;;;;;;4.07;75.30;67229.06;5005771;28;19963;-86
2022/03/11 03:44:54;;;;;;;;;;;;;;;4.07;76.19;67228.50;5018353;28;19921;-85
2022/03/11 03:47:20;;;;;;;;;;;;;;;4.06;75.53;67230.03;5003447;28;19946;-85
2022/03/11 03:49:45;;;;;;;;;;;;;;;4.05;75.91;67229.44;5001648;28;20012;-85
2022/03/11 03:52:12;;;;;;;;;;;;;;;4.00;76.46;67223.22;5004123;28;19921;-85
2022/03/11 03:54:38;;;;;;;;;;;;;;;3.92;74.19;67219.47;5000602;28;20279;-84
2022/03/11 03:57:03;;;;;;;;;;;;;;;;;;5004082;28;19979;-86
2022/03/11 03:59:28;;;;;;;;;;;;;;;3.94;76.92;67216.47;5015923;28;19913;-84
2022/03/11 04:01:53;;;;;;;;;;;;;;;3.88;76.33;67209.69;5032009;28;19961;-84
2022/03/11 04:04:19;;;;;;;;;;;;;;;3.86;76.71;67210.66;5006651;28;19925;-84
2022/03/11 04:06:44;;;;;;;;;;;;;;;3.81;75.45;67205.56;4997948;28;19968;-85
2022/03/11 04:09:09;;;;;;;;;;;;;;;3.82;77.72;67206.69;5033524;28;19921;-83
2022/03/11 04:11:35;;;;;;;;;;;;;;;3.85;76.26;67209.50;5002782;28;19923;-85
2022/03/11 04:14:00;;;;;;;;;;;;;;;3.78;75.10;67196.91;5019751;28;19960;-84
2022/03/11 04:16:32;;;;;;;;;;;;;;;3.79;75.62;67208.56;5002817;28;19921;-86
2022/03/11 04:18:57;;;;;;;;;;;;;;;3.83;75.74;67207.25;5013912;28;19964;-85
2022/03/11 04:21:24;;;;;;;;;;;;;;;3.79;75.86;67198.03;5006375;28;19963;-85
2022/03/11 04:23:50;;;;;;;;;;;;;;;3.83;76.47;67202.56;5032753;28;19919;-84
2022/03/11 04:26:22;;;;;;;;;;;;;;;3.80;75.35;67203.88;4988161;28;19921;-85
2022/03/11 04:28:49;;;;;;;;;;;;;;;3.78;76.09;67202.16;5037646;28;19913;-86
2022/03/11 04:31:14;;;;;;;;;;;;;;;3.81;77.02;67205.56;5034766;28;19914;-84
2022/03/11 04:33:42;;;;;;;;;;;;;;;3.76;75.32;67194.09;5026532;28;19920;-83
2022/03/11 04:36:10;;;;;;;;;;;;;;;3.72;75.95;67192.78;4999077;28;19920;-84
2022/03/11 04:38:43;;;;;;;;;;;;;;;3.70;77.18;67193.16;5014170;28;19980;-85
2022/03/11 04:41:09;;;;;;;;;;;;;;;;;;5004046;28;19917;-83
2022/03/11 04:43:36;;;;;;;;;;;;;;;3.74;76.37;67195.03;4999506;28;19918;-84
2022/03/11 04:46:03;;;;;;;;;;;;;;;3.65;76.37;67187.50;5030012;28;20396;-85
2022/03/11 04:48:28;;;;;;;;;;;;;;;3.59;75.73;67178.09;5016257;28;19968;-85
2022/03/11 04:50:56;;;;;;;;;;;;;;;3.58;75.51;67177.53;5004265;28;20314;-84
2022/03/11 04:53:22;;;;;;;;;;;;;;;3.53;77.58;67173.97;5007402;28;19914;-84
2022/03/11 04:55:49;;;;;;;;;;;;;;;3.55;77.17;67173.59;5001035;28;19913;-85
2022/03/11 04:58:20;;;;;;;;;;;;;;;3.52;77.50;67173.41;5031691;28;19963;-85
2022/03/11 05:00:45;;;;;;;;;;;;;;;3.45;77.83;67160.25;5010161;28;19981;-83
2022/03/11 05:03:11;;;;;;;;;;;;;;;3.48;77.92;67168.31;5008512;28;19917;-84
2022/03/11 05:05:36;;;;;;;;;;;;;;;3.47;77.81;67167.19;5007631;28;20009;-87
2022/03/11 05:08:01;;;;;;;;;;;;;;;3.47;78.45;67169.84;5008715;28;19924;-86
2022/03/11 05:10:34;;;;;;;;;;;;;;;3.48;78.51;67165.69;5009041;28;20267;-83
2022/03/11 05:13:00;;;;;;;;;;;;;;;3.45;77.25;67165.50;5039795;28;19925;-83
2022/03/11 05:15:26;;;;;;;;;;;;;;;3.45;77.75;67165.50;5009770;28;20288;-85
2022/03/11 05:17:55;;;;;;;;;;;;;;;3.38;76.40;67158.16;5039687;28;20370;-84
2022/03/11 05:20:22;;;;;;;;;;;;;;;3.46;77.56;67166.09;4999331;28;19913;-84
2022/03/11 05:22:48;;;;;;;;;;;;;;;3.43;77.27;67167.97;5007422;28;19913;-84
2022/03/11 05:25:13;;;;;;;;;;;;;;;3.46;76.72;67163.44;4991999;28;20340;-85
2022/03/11 05:27:44;;;;;;;;;;;;;;;3.48;77.90;67168.91;5007837;28;19917;-84
2022/03/11 05:30:10;;;;;;;;;;;;;;;3.42;77.33;67162.13;5039726;28;19941;-84
2022/03/11 05:32:43;;;;;;;;;;;;;;;3.41;77.13;67161.00;5004737;28;20413;-87
2022/03/11 05:35:09;;;;;;;;;;;;;;;3.39;78.37;67158.72;5005465;28;19917;-85
2022/03/11 05:37:36;;;;;;;;;;;;;;;3.41;78.53;67161.00;5007208;28;20012;-85
2022/03/11 05:40:01;;;;;;;;;;;;;;;3.47;78.17;67165.13;4993689;28;20020;-85
2022/03/11 05:42:27;;;;;;;;;;;;;;;3.50;77.30;67170.59;5004995;28;20429;-86
2022/03/11 05:44:53;;;;;;;;;;;;;;;3.52;76.28;67172.84;5001148;28;19918;-85
2022/03/11 05:47:18;;;;;;;;;;;;;;;3.43;76.83;67163.25;4995158;28;19921;-86
2022/03/11 05:49:43;;;;;;;;;;;;;;;3.42;76.42;67161.56;5006602;28;19963;-83
2022/03/11 05:52:09;;;;;;;;;;;;;;;3.47;76.32;67167.19;5005644;28;19913;-85
2022/03/11 05:54:36;;;;;;;;;;;;;;;;;;5001671;28;19917;-84
2022/03/11 05:57:02;;;;;;;;;;;;;;;3.51;75.90;67172.28;5003783;28;19920;-87
2022/03/11 05:59:29;;;;;;;;;;;;;;;3.52;75.51;67170.22;5010466;28;19922;-84
2022/03/11 06:01:55;;;;;;;;;;;;;;;3.54;76.69;67175.09;5019691;28;19940;-87
2022/03/11 06:04:22;;;;;;;;;;;;;;;3.56;75.45;67177.91;5005180;28;19917;-85
2022/03/11 06:06:48;;;;;;;;;;;;;;;3.52;75.43;67170.22;5005818;28;20370;-86
2022/03/11 06:09:14;;;;;;;;;;;;;;;3.54;74.15;67172.47;5037066;28;19918;-87
2022/03/11 06:11:39;;;;;;;;;;;;;;;3.60;75.94;67177.16;5035188;28;19936;-86
2022/03/11 06:14:07;;;;;;;;;;;;;;;3.61;75.30;67180.38;5003395;28;20302;-84
2022/03/11 06:16:35;;;;;;;;;;;;;;;3.60;74.89;67185.06;5006510;28;19917;-84
2022/03/11 06:19:02;;;;;;;;;;;;;;;3.61;74.32;67180.38;5036567;28;19992;-84
2022/03/11 06:21:29;;;;;;;;;;;;;;;3.65;75.63;67187.50;5001597;28;19913;-86
2022/03/11 06:23:54;;;;;;;;;;;;;;;3.61;74.69;67177.72;5006836;28;19917;-86
2022/03/11 06:26:19;;;;;;;;;;;;;;;3.65;73.59;67184.88;5003418;28;20205;-86
2022/03/11 06:28:46;;;;;;;;;;;;;;;3.65;75.10;67184.88;5001703;28;19971;-86
2022/03/11 06:31:11;;;;;;;;;;;;;;;3.64;75.64;67181.13;5003999;28;19921;-84
2022/03/11 06:33:37;;;;;;;;;;;;;;;3.64;74.46;67186.38;4989941;28;19913;-86
2022/03/11 06:36:02;;;;;;;;;;;;;;;3.67;74.01;67183.94;5004251;28;19940;-87
2022/03/11 06:38:27;;;;;;;;;;;;;;;3.72;75.24;67194.84;5004822;28;20007;-88
2022/03/11 06:40:54;;;;;;;;;;;;;;;3.75;74.84;67192.97;5007391;28;19913;-84
2022/03/11 06:43:19;;;;;;;;;;;;;;;;;;4999940;28;19917;-86
2022/03/11 06:45:45;;;;;;;;;;;;;;;3.78;73.98;67201.63;5005106;28;20400;-86
2022/03/11 06:48:10;;;;;;;;;;;;;;;3.79;73.55;67200.66;5008972;28;19918;-85
2022/03/11 06:50:35;;;;;;;;;;;;;;;3.84;74.68;67205.75;5004356;28;19921;-83
2022/03/11 06:53:00;;;;;;;;;;;;;;;3.79;73.10;67203.28;5034122;28;20757;-84
2022/03/11 06:55:25;;;;;;;;;;;;;;;3.82;74.36;67200.84;5043685;28;19991;-84
2022/03/11 06:57:51;;;;;;;;;;;;;;;3.78;73.66;67202.16;5010773;28;19913;-87
2022/03/11 07:00:16;;;;;;;;;;;;;;;3.82;75.08;67206.69;5029589;28;19913;-86
2022/03/11 07:02:42;;;;;;;;;;;;;;;3.84;74.94;67211.00;4994489;28;20566;-87
2022/03/11 07:05:07;;;;;;;;;;;;;;;3.89;73.81;67208.19;4995593;28;20012;-87
2022/03/11 07:07:33;;;;;;;;;;;;;;;3.94;73.73;67219.09;5005598;28;19922;-86
2022/03/11 07:10:00;;;;;;;;;;;;;;;3.96;73.06;67216.09;5011248;28;20365;-83
2022/03/11 07:12:25;;;;;;;;;;;;;;;3.99;73.67;67222.09;5034585;28;19917;-84
2022/03/11 07:14:50;;;;;;;;;;;;;;;;;;5009227;28;20309;-84
2022/03/11 07:17:16;;;;;;;;;;;;;;;4.07;73.04;67234.34;5015536;28;19913;-85
2022/03/11 07:19:41;;;;;;;;;;;;;;;4.13;73.22;67240.53;5014572;28;19951;-86
2022/03/11 07:22:07;;;;;;;;;;;;;;;4.18;71.69;67245.63;4991239;28;19917;-85
2022/03/11 07:24:32;;;;;;;;;;;;;;;4.23;71.86;67248.63;4997422;28;19953;-85
2022/03/11 07:26:58;;;;;;;;;;;;;;;4.27;71.93;67256.34;5000809;28;19928;-88
2022/03/11 07:29:23;;;;;;;;;;;;;;;4.30;71.98;67259.72;5009491;28;20299;-88
2022/03/11 07:31:49;;;;;;;;;;;;;;;4.41;71.07;67268.94;5028836;28;19913;-87
2022/03/11 07:34:14;;;;;;;;;;;;;;;4.46;70.44;67271.38;5002782;28;19984;-86
2022/03/11 07:36:39;;;;;;;;;;;;;;;4.51;71.39;67282.31;5034892;28;20235;-88
2022/03/11 07:39:05;;;;;;;;;;;;;;;4.57;70.04;67283.81;5020251;28;20392;-86
2022/03/11 07:41:31;;;;;;;;;;;;;;;4.62;70.65;67294.72;5006881;28;20471;-91
2022/03/11 07:43:57;;;;;;;;;;;;;;;4.67;70.03;67299.81;5009463;28;19913;-85
2022/03/11 07:46:23;;;;;;;;;;;;;;;4.73;69.28;67301.88;5007256;28;19922;-84
2022/03/11 07:48:51;;;;;;;;;;;;;;;4.80;69.74;67309.22;5008078;28;19968;-86
2022/03/11 07:51:17;;;;;;;;;;;;;;;4.83;68.27;67312.59;4993580;28;20302;-86
2022/03/11 07:53:42;;;;;;;;;;;;;;;4.92;68.96;67325.41;5005570;28;19914;-88
2022/03/11 07:56:08;;;;;;;;;;;;;;;5.01;68.61;67334.44;5038581;28;19991;-84
2022/03/11 07:58:33;;;;;;;;;;;;;;;5.09;66.99;67343.47;5008015;28;20024;-86
2022/03/11 08:00:59;;;;;;;;;;;;;;;5.20;66.91;67356.47;5014974;28;19913;-85
2022/03/11 08:03:24;;;;;;;;;;;;;;;5.34;66.44;67374.34;5013737;28;19917;-88
2022/03/11 08:05:50;;;;;;;;;;;;;;;5.40;65.81;67377.94;5002908;28;19945;-88
2022/03/11 08:08:15;;;;;;;;;;;;;;;5.46;63.80;67381.50;5008749;28;19923;-85
2022/03/11 08:10:41;;;;;;;;;;;;;;;5.56;65.45;67396.00;5004770;28;19913;-86
2022/03/11 08:13:06;;;;;;;;;;;;;;;5.61;63.91;67401.09;5003894;28;20563;-89
2022/03/11 08:15:32;;;;;;;;;;;;;;;5.66;63.01;67406.75;5012303;28;19913;-85
2022/03/11 08:17:57;;;;;;;;;;;;;;;5.75;63.65;67416.34;5006079;28;19913;-83
2022/03/11 08:20:22;;;;;;;;;;;;;;;5.83;63.66;67422.75;5011588;28;19929;-85
2022/03/11 08:22:50;;;;;;;;;;;;;;;5.95;61.61;67435.78;4984551;28;19917;-86
2022/03/11 08:25:15;;;;;;;;;;;;;;;5.97;62.24;67443.88;5004747;28;19917;-88
2022/03/11 08:27:40;;;;;;;;;;;;;;;5.98;61.20;67439.72;5003846;28;20268;-86
2022/03/11 08:30:06;;;;;;;;;;;;;;;6.14;62.20;67459.34;5004023;28;19998;-85
2022/03/11 08:32:32;;;;;;;;;;;;;;;6.11;62.15;67456.50;5007079;28;20382;-89
2022/03/11 08:34:58;;;;;;;;;;;;;;;6.19;61.52;67462.34;5011824;28;19956;-84
2022/03/11 08:37:23;;;;;;;;;;;;;;;6.27;59.52;67477.25;5013758;28;19921;-88
2022/03/11 08:39:49;;;;;;;;;;;;;;;6.35;60.39;67482.50;4990274;28;19913;-88
2022/03/11 08:42:15;;;;;;;;;;;;;;;6.38;59.59;67477.97;5031955;28;19917;-87
2022/03/11 08:44:40;;;;;;;;;;;;;;;6.48;59.96;67494.56;5034191;28;19914;-84
2022/03/11 08:47:05;;;;;;;;;;;;;;;6.48;58.42;67495.13;5008178;28;19918;-84
2022/03/11 08:49:30;;;;;;;;;;;;;;;6.53;57.10;67506.09;5007526;28;19987;-89
2022/03/11 08:51:56;;;;;;;;;;;;;;;6.53;55.92;67506.09;5002860;28;19921;-84
2022/03/11 08:54:21;;;;;;;;;;;;;;;6.64;56.56;67515.31;5003708;28;19928;-84
2022/03/11 08:56:49;;;;;;;;;;;;;;;6.78;58.76;67530.56;5003584;28;19914;-86
2022/03/11 08:59:14;;;;;;;;;;;;;;;6.89;56.82;67543.03;5010490;28;19917;-85
2022/03/11 09:01:40;;;;;;;;;;;;;;;7.10;56.31;67563.00;5010331;28;19956;-87
2022/03/11 09:04:13;;;;;;;;;;;;;;;7.04;56.11;67561.50;5005953;28;19914;-90
2022/03/11 09:06:42;;;;;;;;;;;;;;;7.04;55.36;67556.78;5005060;28;19922;-86
2022/03/11 09:09:09;;;;;;;;;;;;;;;;;;5021205;28;19960;-87
2022/03/11 09:11:36;;;;;;;;;;;;;;;7.16;54.38;67569.78;5035463;28;19913;-84
2022/03/11 09:14:01;;;;;;;;;;;;;;;7.15;55.07;67568.66;5011741;28;19917;-85
2022/03/11 09:16:27;;;;;;;;;;;;;;;7.14;54.24;67570.75;5009016;28;19976;-85
2022/03/11 09:18:55;;;;;;;;;;;;;;;7.23;54.38;67577.72;5012044;28;19921;-89
2022/03/11 09:21:22;;;;;;;;;;;;;;;7.39;56.25;67595.84;5041713;28;19917;-86
2022/03/11 09:23:49;;;;;;;;;;;;;;;7.50;54.59;67610.34;5028232;28;20283;-84
2022/03/11 09:26:20;;;;;;;;;;;;;;;7.56;54.97;67608.63;5013219;28;19974;-85
2022/03/11 09:28:46;;;;;;;;;;;;;;;7.58;54.19;67619.41;5006298;28;20042;-87
2022/03/11 09:31:12;;;;;;;;;;;;;;;;;;5024417;28;19917;-89
2022/03/11 09:33:38;;;;;;;;;;;;;;;7.63;54.21;67621.88;5041494;28;19917;-87
2022/03/11 09:36:04;;;;;;;;;;;;;;;7.70;54.52;67624.47;5010816;28;20400;-87
2022/03/11 09:38:31;;;;;;;;;;;;;;;7.76;54.76;67636.56;5009747;28;19924;-85
2022/03/11 09:40:58;;;;;;;;;;;;;;;7.84;52.91;67650.38;5041224;28;20409;-85
2022/03/11 09:43:25;;;;;;;;;;;;;;;7.98;53.83;67660.34;4998398;28;19922;-84
2022/03/11 09:45:51;;;;;;;;;;;;;;;;;;5007745;28;20007;-84
2022/03/11 09:48:17;;;;;;;;;;;;;;;8.22;54.75;67682.22;5029943;28;19953;-85
2022/03/11 09:50:43;;;;;;;;;;;;;;;8.35;52.78;67702.25;5038005;28;19924;-87
2022/03/11 09:53:14;;;;;;;;;;;;;;;8.32;50.27;67701.50;4993475;28;20326;-88
2022/03/11 09:55:39;;;;;;;;;;;;;;;;;;5023918;28;19917;-86
2022/03/11 09:58:05;;;;;;;;;;;;;;;8.57;52.37;67726.66;5043415;28;19918;-84
2022/03/11 10:00:32;;;;;;;;;;;;;;;8.70;51.75;67740.22;5022660;28;19914;-86
2022/03/11 10:03:00;;;;;;;;;;;;;;;8.64;49.49;67734.00;5022196;28;20250;-86
2022/03/11 10:05:25;;;;;;;;;;;;;;;;;;4980714;28;19922;-86
2022/03/11 10:07:59;;;;;;;;;;;;;;;8.73;51.45;67748.94;4995787;28;19921;-87
2022/03/11 10:10:25;;;;;;;;;;;;;;;8.97;51.93;67773.47;5004656;28;19967;-84
2022/03/11 10:12:53;;;;;;;;;;;;;;;9.09;50.82;67783.88;5027076;28;19917;-83
2022/03/11 10:15:26;;;;;;;;;;;;;;;9.18;49.79;67793.50;5026955;28;20362;-82
2022/03/11 10:17:52;;;;;;;;;;;;;;;9.22;48.64;67798.59;5017899;28;19917;-82
2022/03/11 10:20:18;;;;;;;;;;;;;;;9.20;49.33;67798.97;5018981;28;19947;-83
2022/03/11 10:22:46;;;;;;;;;;;;;;;9.30;50.54;67806.53;5014349;28;20302;-88
2022/03/11 10:25:13;;;;;;;;;;;;;;;9.29;48.03;67808.03;5023313;28;20362;-86
2022/03/11 10:27:54;;;;;;;;;;;;;;;9.28;48.77;67804.81;5023489;28;20374;-83
2022/03/11 10:30:21;;;;;;;;;;;;;;;9.39;48.91;67816.75;5035513;28;20298;-88
2022/03/11 10:32:50;;;;;;;;;;;;;;;9.53;48.81;67832.63;5019759;28;20063;-89
2022/03/11 10:35:18;;;;;;;;;;;;;;;9.69;49.16;67850.75;5000288;28;19929;-85
2022/03/11 10:38:02;;;;;;;;;;;;;;;9.81;49.08;67863.22;5022973;28;19932;-87
2022/03/11 10:40:32;;;;;;;;;;;;;;;10.00;47.77;67884.78;5020891;28;19929;-89
2022/03/11 10:43:15;;;;;;;;;;;;;;;9.90;48.01;67874.00;5009798;28;19917;-89
2022/03/11 10:45:41;;;;;;;;;;;;;;;;;;5012042;28;19917;-85
2022/03/11 10:48:08;;;;;;;;;;;;;;;9.85;45.87;67873.66;5045134;28;19978;-82
2022/03/11 10:50:37;;;;;;;;;;;;;;;9.94;47.20;67877.97;5003449;28;19921;-85
2022/03/11 10:53:02;;;;;;;;;;;;;;;;;;4997704;28;20396;-88
2022/03/11 10:55:29;;;;;;;;;;;;;;;10.14;47.79;67900.66;5012148;28;19917;-86
2022/03/11 10:58:04;;;;;;;;;;;;;;;10.23;45.94;67910.28;5040055;28;19917;-85
2022/03/11 11:00:35;;;;;;;;;;;;;;;10.36;47.49;67925.06;5017928;28;19929;-86
2022/03/11 11:03:01;;;;;;;;;;;;;;;;;;5011006;28;19921;-88
2022/03/11 11:05:28;;;;;;;;;;;;;;;10.44;46.35;67933.00;5011897;28;19921;-88
2022/03/11 11:07:57;;;;;;;;;;;;;;;10.63;46.72;67954.00;5027341;28;19921;-86
2022/03/11 11:10:28;;;;;;;;;;;;;;;;;;5022471;28;19921;-89
2022/03/11 11:12:53;;;;;;;;;;;;;;;10.61;44.71;67952.84;5042620;28;19918;-85
2022/03/11 11:15:21;;;;;;;;;;;;;;;10.68;45.81;67962.91;4991338;28;20273;-84
2022/03/11 11:17:49;;;;;;;;;;;;;;;10.77;43.40;67969.91;4998802;28;20204;-88
2022/03/11 11:20:33;;;;;;;;;;;;;;;10.74;44.05;67967.06;5003602;28;19964;-88
2022/03/11 11:23:01;;;;;;;;;;;;;;;10.79;45.30;67972.19;5031369;28;19921;-88
2022/03/11 11:25:33;;;;;;;;;;;;;;;10.90;45.63;67979.31;5006599;28;19941;-87
2022/03/11 11:28:01;;;;;;;;;;;;;;;10.86;42.94;67979.53;5043304;28;19929;-86
2022/03/11 11:30:28;;;;;;;;;;;;;;;;;;5007421;28;20297;-87
2022/03/11 11:32:55;;;;;;;;;;;;;;;11.26;44.73;68024.94;5004763;28;19920;-90
2022/03/11 11:35:33;;;;;;;;;;;;;;;11.27;45.91;68025.50;5002319;28;19921;-85
2022/03/11 11:38:00;;;;;;;;;;;;;;;11.39;43.38;68041.25;5007866;28;19963;-87
2022/03/11 11:40:25;;;;;;;;;;;;;;;;;;5015355;28;20255;-86
2022/03/11 11:43:09;;;;;;;;;;;;;;;11.55;44.51;68056.75;5022965;28;19918;-85
2022/03/11 11:45:46;;;;;;;;;;;;;;;11.66;44.15;68063.91;5003195;28;19918;-89
2022/03/11 11:48:32;;;;;;;;;;;;;;;11.76;45.43;68080.03;5037920;28;19922;-87
2022/03/11 11:50:58;;;;;;;;;;;;;;;;;;5007101;28;19921;-85
2022/03/11 11:53:25;;;;;;;;;;;;;;;;;;5039309;28;20444;-89
2022/03/11 11:55:53;;;;;;;;;;;;;;;12.02;44.20;68108.44;5003233;28;19918;-88
2022/03/11 11:58:18;;;;;;;;;;;;;;;;;;5034393;28;19917;-86
2022/03/11 12:00:43;;;;;;;;;;;;;;;;;;5001651;28;19932;-85
2022/03/11 12:03:14;;;;;;;;;;;;;;;12.02;42.71;68108.44;5003935;28;19956;-84
2022/03/11 12:05:44;;;;;;;;;;;;;;;12.32;42.68;68147.31;5003392;28;19964;-85
2022/03/11 12:08:10;;;;;;;;;;;;;;;12.38;44.08;68144.03;5006352;28;19921;-82
2022/03/11 12:10:49;;;;;;;;;;;;;;;12.41;42.55;68152.78;5000341;28;19945;-85
2022/03/11 12:13:30;;;;;;;;;;;;;;;12.48;43.12;68162.25;4994457;28;20583;-86
2022/03/11 12:15:55;;;;;;;;;;;;;;;;;;5036982;28;20340;-88
2022/03/11 12:18:20;;;;;;;;;;;;;;;;;;5027367;28;19921;-89
2022/03/11 12:20:47;;;;;;;;;;;;;;;12.82;41.66;68197.69;5005557;28;21058;-87
2022/03/11 12:23:12;;;;;;;;;;;;;;;;;;5001801;28;19917;-89
2022/03/11 12:25:37;;;;;;;;;;;;;;;;;;5000312;28;19921;-83
2022/03/11 12:28:04;;;;;;;;;;;;;;;12.82;41.66;68197.69;5008050;28;19972;-88
2022/03/11 12:30:29;;;;;;;;;;;;;;;;;;5006591;28;20027;-85
2022/03/11 12:32:54;;;;;;;;;;;;;;;;;;4994984;28;20384;-86
2022/03/11 12:35:20;;;;;;;;;;;;;;;13.14;41.63;68233.50;4998292;28;19921;-84
2022/03/11 12:37:45;;;;;;;;;;;;;;;13.27;41.59;68242.38;4987456;28;20417;-83
2022/03/11 12:40:11;;;;;;;;;;;;;;;13.32;40.75;68256.06;4990076;28;19921;-88
2022/03/11 12:42:37;;;;;;;;;;;;;;;13.44;42.69;68261.16;5002025;28;19913;-89
2022/03/11 12:45:03;;;;;;;;;;;;;;;13.60;42.49;68276.66;4990992;28;20241;-87
2022/03/11 12:47:28;;;;;;;;;;;;;;;;;;5007195;28;19918;-84
2022/03/11 12:50:00;;;;;;;;;;;;;;;13.76;41.58;68294.88;5021313;28;20444;-86
2022/03/11 12:52:26;;;;;;;;;;;;;;;13.89;40.66;68311.75;5006183;28;19921;-87
2022/03/11 12:54:52;;;;;;;;;;;;;;;;;;4997274;28;19920;-83
2022/03/11 12:57:17;;;;;;;;;;;;;;;13.98;40.49;68326.78;5021942;28;19914;-85
2022/03/11 12:59:44;;;;;;;;;;;;;;;14.02;41.11;68326.00;4995588;28;19927;-87
2022/03/11 13:02:10;;;;;;;;;;;;;;;;;;5004744;28;19917;-86
2022/03/11 13:04:42;;;;;;;;;;;;;;;14.04;39.72;68333.63;5006587;28;20472;-85
2022/03/11 13:07:07;;;;;;;;;;;;;;;;;;5004556;28;19929;-86
2022/03/11 13:09:32;;;;;;;;;;;;;;;14.33;40.03;68360.16;5003751;28;19913;-86
2022/03/11 13:12:18;;;;;;;;;;;;;;;14.42;41.84;68370.38;5032268;28;20386;-87